createdAt,value
2023-03-17T00:03:49.148Z,461.00
2023-03-17T00:07:49.178Z,457.00
2023-03-17T00:11:49.342Z,460.00
2023-03-17T00:15:49.550Z,464.00
2023-03-17T00:19:49.586Z,465.00
2023-03-17T00:23:49.782Z,464.00
2023-03-17T00:27:49.957Z,462.00
2023-03-17T00:31:50.151Z,460.00
2023-03-17T00:35:50.312Z,462.00
2023-03-17T00:39:50.489Z,462.00
2023-03-17T00:43:50.624Z,463.00
2023-03-17T00:47:50.828Z,463.00
2023-03-17T00:51:50.973Z,466.00
2023-03-17T00:55:51.167Z,462.00
2023-03-17T00:59:51.281Z,462.00
2023-03-17T01:03:51.481Z,464.00
2023-03-17T01:07:51.660Z,467.00
2023-03-17T01:11:51.878Z,465.00
2023-03-17T01:15:52.097Z,464.00
2023-03-17T01:19:52.236Z,466.00
2023-03-17T01:23:52.431Z,467.00
2023-03-17T01:27:52.579Z,472.00
2023-03-17T01:31:52.851Z,475.00
2023-03-17T01:35:53.011Z,472.00
2023-03-17T01:39:53.133Z,476.00
2023-03-17T01:43:53.321Z,474.00
2023-03-17T01:47:53.492Z,474.00
2023-03-17T01:51:53.677Z,468.00
2023-03-17T01:55:53.876Z,471.00
2023-03-17T01:59:54.049Z,469.00
2023-03-17T02:03:54.563Z,468.00
2023-03-17T02:07:54.461Z,472.00
2023-03-17T02:11:54.606Z,475.00
2023-03-17T02:15:54.815Z,470.00
2023-03-17T02:19:54.986Z,470.00
2023-03-17T02:23:55.176Z,473.00
2023-03-17T02:27:55.329Z,472.00
2023-03-17T02:31:55.528Z,464.00
2023-03-17T02:35:55.756Z,468.00
2023-03-17T02:39:55.939Z,466.00
2023-03-17T02:43:56.144Z,470.00
2023-03-17T02:47:56.290Z,470.00
2023-03-17T02:51:56.541Z,468.00
2023-03-17T02:55:56.749Z,463.00
2023-03-17T02:59:56.965Z,466.00
2023-03-17T03:03:57.212Z,469.00
2023-03-17T03:07:57.387Z,472.00
2023-03-17T03:11:57.595Z,473.00
2023-03-17T03:15:57.896Z,476.00
2023-03-17T03:19:58.067Z,477.00
2023-03-17T03:23:58.262Z,478.00
2023-03-17T03:27:58.445Z,478.00
2023-03-17T03:31:58.681Z,478.00
2023-03-17T03:35:58.887Z,476.00
2023-03-17T03:39:59.131Z,485.00
2023-03-17T03:43:59.304Z,487.00
2023-03-17T03:47:59.539Z,487.00
2023-03-17T03:51:59.781Z,481.00
2023-03-17T03:55:59.741Z,478.00
2023-03-17T03:59:59.677Z,477.00
2023-03-17T04:03:59.642Z,480.00
2023-03-17T04:07:59.623Z,480.00
2023-03-17T04:11:59.597Z,477.00
2023-03-17T04:15:59.569Z,475.00
2023-03-17T04:19:59.554Z,477.00
2023-03-17T04:23:59.475Z,478.00
2023-03-17T04:27:59.434Z,479.00
2023-03-17T04:31:59.501Z,483.00
2023-03-17T04:35:59.454Z,480.00
2023-03-17T04:39:59.401Z,477.00
2023-03-17T04:43:59.359Z,481.00
2023-03-17T04:47:59.332Z,485.00
2023-03-17T04:51:59.310Z,486.00
2023-03-17T04:55:59.228Z,484.00
2023-03-17T04:59:59.216Z,486.00
2023-03-17T05:03:59.210Z,482.00
2023-03-17T05:07:59.158Z,482.00
2023-03-17T05:11:59.216Z,480.00
2023-03-17T05:15:59.174Z,481.00
2023-03-17T05:19:59.152Z,478.00
2023-03-17T05:23:59.211Z,479.00
2023-03-17T05:27:59.086Z,483.00
2023-03-17T05:31:59.038Z,480.00
2023-03-17T05:35:59.009Z,481.00
2023-03-17T05:39:58.951Z,478.00
2023-03-17T05:43:58.941Z,484.00
2023-03-17T05:47:58.876Z,481.00
2023-03-17T05:51:58.994Z,481.00
2023-03-17T05:55:58.959Z,477.00
2023-03-17T05:59:58.945Z,477.00
2023-03-17T06:03:58.887Z,476.00
2023-03-17T06:07:58.836Z,478.00
2023-03-17T06:11:58.834Z,481.00
2023-03-17T06:15:58.798Z,478.00
2023-03-17T06:19:58.725Z,481.00
2023-03-17T06:23:58.718Z,477.00
2023-03-17T06:27:58.724Z,477.00
2023-03-17T06:32:09.251Z,478.00
2023-03-17T06:35:59.591Z,478.00
2023-03-17T06:39:58.544Z,473.00
2023-03-17T06:43:58.655Z,477.00
2023-03-17T06:47:59.163Z,479.00
2023-03-17T06:51:58.939Z,478.00
2023-03-17T06:55:59.165Z,483.00
2023-03-17T06:59:59.672Z,486.00
2023-03-17T07:03:59.301Z,502.00
2023-03-17T07:07:59.641Z,509.00
2023-03-17T07:11:59.520Z,511.00
2023-03-17T07:16:00.652Z,508.00
2023-03-17T07:19:59.668Z,508.00
2023-03-17T07:23:59.753Z,518.00
2023-03-17T07:28:00.293Z,513.00
2023-03-17T07:31:59.870Z,542.00
2023-03-17T07:36:00.028Z,564.00
2023-03-17T07:40:00.122Z,562.00
2023-03-17T07:44:00.170Z,558.00
2023-03-17T07:48:00.158Z,584.00
2023-03-17T07:52:00.681Z,578.00
2023-03-17T07:56:00.681Z,580.00
2023-03-17T08:00:00.377Z,569.00
2023-03-17T08:04:00.472Z,551.00
2023-03-17T08:08:00.490Z,550.00
2023-03-17T08:12:00.540Z,546.00
2023-03-17T08:16:00.720Z,543.00
2023-03-17T08:20:00.695Z,542.00
2023-03-17T08:24:00.771Z,543.00
2023-03-17T08:28:00.777Z,552.00
2023-03-17T08:32:00.785Z,553.00
2023-03-17T08:36:00.810Z,550.00
2023-03-17T08:40:00.823Z,546.00
2023-03-17T08:44:01.217Z,550.00
2023-03-17T08:48:01.171Z,560.00
2023-03-17T08:52:01.167Z,559.00
2023-03-17T08:56:01.183Z,560.00
2023-03-17T09:00:00.894Z,557.00
2023-03-17T09:04:00.923Z,551.00
2023-03-17T09:08:01.233Z,544.00
2023-03-17T09:12:00.945Z,540.00
2023-03-17T09:16:01.024Z,540.00
2023-03-17T09:20:00.979Z,538.00
2023-03-17T09:24:02.591Z,534.00
2023-03-17T09:28:01.205Z,526.00
2023-03-17T09:32:01.215Z,515.00
2023-03-17T09:36:01.308Z,512.00
2023-03-17T09:40:01.431Z,514.00
2023-03-17T09:44:01.703Z,511.00
2023-03-17T09:48:02.197Z,507.00
2023-03-17T09:52:01.920Z,502.00
2023-03-17T09:56:02.179Z,498.00
2023-03-17T10:00:02.286Z,490.00
2023-03-17T10:04:02.733Z,489.00
2023-03-17T10:08:02.592Z,491.00
2023-03-17T10:12:02.738Z,496.00
2023-03-17T10:16:02.992Z,495.00
2023-03-17T10:20:03.151Z,503.00
2023-03-17T10:24:03.222Z,504.00
2023-03-17T10:28:03.056Z,504.00
2023-03-17T10:32:03.052Z,511.00
2023-03-17T10:36:03.230Z,509.00
2023-03-17T10:40:02.929Z,516.00
2023-03-17T10:44:02.936Z,518.00
2023-03-17T10:48:03.218Z,525.00
2023-03-17T10:52:03.199Z,528.00
2023-03-17T10:56:03.224Z,533.00
2023-03-17T11:00:02.851Z,532.00
2023-03-17T11:04:03.324Z,533.00
2023-03-17T11:08:03.258Z,528.00
2023-03-17T11:12:03.740Z,526.00
2023-03-17T11:16:03.736Z,523.00
2023-03-17T11:20:03.855Z,524.00
2023-03-17T11:24:04.067Z,528.00
2023-03-17T11:28:06.245Z,524.00
2023-03-17T11:32:04.627Z,520.00
2023-03-17T11:36:04.765Z,526.00
2023-03-17T11:40:04.884Z,517.00
2023-03-17T11:44:05.225Z,513.00
2023-03-17T11:48:05.742Z,514.00
2023-03-17T11:52:05.415Z,516.00
2023-03-17T11:56:05.577Z,516.00
2023-03-17T12:00:05.793Z,518.00
2023-03-17T12:04:06.389Z,519.00
2023-03-17T12:08:06.136Z,515.00
2023-03-17T12:12:06.344Z,508.00
2023-03-17T12:16:06.818Z,505.00
2023-03-17T12:20:06.669Z,501.00
2023-03-17T12:24:07.241Z,505.00
2023-03-17T12:28:06.989Z,502.00
2023-03-17T12:32:07.291Z,503.00
2023-03-17T12:36:07.796Z,506.00
2023-03-17T12:40:07.417Z,506.00
2023-03-17T12:44:07.569Z,508.00
2023-03-17T12:48:07.726Z,504.00
2023-03-17T12:52:07.852Z,500.00
2023-03-17T12:56:08.005Z,497.00
2023-03-17T13:00:08.123Z,501.00
2023-03-17T13:04:08.290Z,503.00
2023-03-17T13:08:08.769Z,500.00
2023-03-17T13:12:08.560Z,502.00
2023-03-17T13:16:08.760Z,500.00
2023-03-17T13:20:08.833Z,496.00
2023-03-17T13:24:08.987Z,494.00
2023-03-17T13:28:10.466Z,497.00
2023-03-17T13:32:09.225Z,497.00
2023-03-17T13:36:09.460Z,494.00
2023-03-17T13:40:10.935Z,491.00
2023-03-17T13:44:09.732Z,487.00
2023-03-17T13:48:09.881Z,483.00
2023-03-17T13:52:10.047Z,482.00
2023-03-17T13:56:10.250Z,474.00
2023-03-17T14:00:10.401Z,471.00
2023-03-17T14:04:11.193Z,465.00
2023-03-17T14:08:10.770Z,465.00
2023-03-17T14:12:10.945Z,463.00
2023-03-17T14:16:11.194Z,456.00
2023-03-17T14:20:11.329Z,457.00
2023-03-17T14:24:11.420Z,460.00
2023-03-17T14:28:11.643Z,459.00
2023-03-17T14:32:11.751Z,453.00
2023-03-17T14:36:14.233Z,454.00
2023-03-17T14:40:11.913Z,449.00
2023-03-17T14:44:11.831Z,447.00
2023-03-17T14:48:11.795Z,450.00
2023-03-17T14:52:11.750Z,452.00
2023-03-17T14:56:11.753Z,454.00
2023-03-17T15:00:11.698Z,446.00
2023-03-17T15:04:11.720Z,442.00
2023-03-17T15:08:11.604Z,441.00
2023-03-17T15:12:11.607Z,442.00
2023-03-17T15:16:11.581Z,442.00
2023-03-17T15:20:11.522Z,440.00
2023-03-17T15:24:11.690Z,436.00
2023-03-17T15:28:11.937Z,438.00
2023-03-17T15:32:12.152Z,434.00
2023-03-17T15:36:16.598Z,438.00
2023-03-17T15:40:13.079Z,442.00
2023-03-17T15:44:12.033Z,434.00
2023-03-17T15:48:12.126Z,437.00
2023-03-17T15:52:12.334Z,438.00
2023-03-17T15:56:12.518Z,437.00
2023-03-17T16:00:12.745Z,435.00
2023-03-17T16:04:12.973Z,430.00
2023-03-17T16:08:13.171Z,428.00
2023-03-17T16:12:13.123Z,429.00
2023-03-17T16:16:13.173Z,424.00
2023-03-17T16:20:13.057Z,426.00
2023-03-17T16:24:13.105Z,424.00
2023-03-17T16:28:12.995Z,422.00
2023-03-17T16:32:12.963Z,424.00
2023-03-17T16:36:12.949Z,426.00
2023-03-17T16:40:15.208Z,431.00
2023-03-17T16:44:13.090Z,429.00
2023-03-17T16:48:13.276Z,433.00
2023-03-17T16:52:13.488Z,434.00
2023-03-17T16:56:13.740Z,438.00
2023-03-17T17:00:13.906Z,438.00
2023-03-17T17:04:14.178Z,435.00
2023-03-17T17:08:14.352Z,435.00
2023-03-17T17:12:14.250Z,433.00
2023-03-17T17:16:14.235Z,427.00
2023-03-17T17:20:14.214Z,433.00
2023-03-17T17:24:14.188Z,432.00
2023-03-17T17:28:14.159Z,429.00
2023-03-17T17:32:14.108Z,431.00
2023-03-17T17:36:14.094Z,430.00
2023-03-17T17:40:14.050Z,432.00
2023-03-17T17:44:13.978Z,436.00
2023-03-17T17:48:14.043Z,442.00
2023-03-17T17:52:14.040Z,438.00
2023-03-17T17:56:13.984Z,439.00
2023-03-17T18:00:13.943Z,436.00
2023-03-17T18:04:13.944Z,432.00
2023-03-17T18:08:13.831Z,431.00
2023-03-17T18:12:13.823Z,433.00
2023-03-17T18:16:13.830Z,432.00
2023-03-17T18:20:13.718Z,437.00
2023-03-17T18:24:13.730Z,436.00
2023-03-17T18:28:13.784Z,438.00
2023-03-17T18:32:13.776Z,437.00
2023-03-17T18:36:13.670Z,435.00
2023-03-17T18:40:17.985Z,435.00
2023-03-17T18:44:14.599Z,435.00
2023-03-17T18:48:13.591Z,436.00
2023-03-17T18:52:13.719Z,438.00
2023-03-17T18:56:13.907Z,435.00
2023-03-17T19:00:14.147Z,434.00
2023-03-17T19:04:14.411Z,437.00
2023-03-17T19:08:14.572Z,443.00
2023-03-17T19:12:14.792Z,442.00
2023-03-17T19:16:15.051Z,446.00
2023-03-17T19:20:15.229Z,443.00
2023-03-17T19:24:15.428Z,446.00
2023-03-17T19:28:15.627Z,447.00
2023-03-17T19:32:15.813Z,449.00
2023-03-17T19:36:16.043Z,449.00
2023-03-17T19:40:16.223Z,446.00
2023-03-17T19:44:16.453Z,449.00
2023-03-17T19:48:16.456Z,451.00
2023-03-17T19:52:16.384Z,455.00
2023-03-17T19:56:16.347Z,460.00
2023-03-17T20:00:16.331Z,463.00
2023-03-17T20:04:16.316Z,461.00
2023-03-17T20:08:16.244Z,460.00
2023-03-17T20:12:16.208Z,460.00
2023-03-17T20:16:16.199Z,463.00
2023-03-17T20:20:16.157Z,468.00
2023-03-17T20:24:16.113Z,467.00
2023-03-17T20:28:16.108Z,466.00
2023-03-17T20:32:16.029Z,473.00
2023-03-17T20:36:16.009Z,476.00
2023-03-17T20:40:15.940Z,476.00
2023-03-17T20:44:15.957Z,476.00
2023-03-17T20:48:15.901Z,474.00
2023-03-17T20:52:15.868Z,475.00
2023-03-17T20:56:15.823Z,480.00
2023-03-17T21:00:15.867Z,480.00
2023-03-17T21:04:15.887Z,480.00
2023-03-17T21:08:15.841Z,480.00
2023-03-17T21:12:15.800Z,479.00
2023-03-17T21:16:15.823Z,482.00
2023-03-17T21:20:15.758Z,483.00
2023-03-17T21:24:15.654Z,486.00
2023-03-17T21:28:15.634Z,489.00
2023-03-17T21:32:15.620Z,488.00
2023-03-17T21:36:15.581Z,485.00
2023-03-17T21:40:15.572Z,487.00
2023-03-17T21:44:15.588Z,486.00
2023-03-17T21:48:15.554Z,484.00
2023-03-17T21:52:15.499Z,485.00
2023-03-17T21:56:15.461Z,483.00
2023-03-17T22:00:15.422Z,481.00
2023-03-17T22:04:15.377Z,485.00
2023-03-17T22:08:15.335Z,487.00
2023-03-17T22:12:15.292Z,490.00
2023-03-17T22:16:15.312Z,491.00
2023-03-17T22:20:15.221Z,487.00
2023-03-17T22:24:15.256Z,491.00
2023-03-17T22:28:15.442Z,492.00
2023-03-17T22:32:15.648Z,490.00
2023-03-17T22:36:15.681Z,493.00
2023-03-17T22:40:15.555Z,494.00
2023-03-17T22:44:15.542Z,490.00
2023-03-17T22:48:15.537Z,491.00
2023-03-17T22:52:15.472Z,491.00
2023-03-17T22:56:15.416Z,490.00
2023-03-17T23:00:15.426Z,491.00
2023-03-17T23:04:15.405Z,489.00
2023-03-17T23:08:15.333Z,493.00
2023-03-17T23:12:15.409Z,495.00
2023-03-17T23:16:15.473Z,492.00
2023-03-17T23:20:15.396Z,492.00
2023-03-17T23:24:15.333Z,493.00
2023-03-17T23:28:15.299Z,493.00
2023-03-17T23:32:15.243Z,495.00
2023-03-17T23:36:15.213Z,494.00
2023-03-17T23:40:15.162Z,497.00
2023-03-17T23:44:15.143Z,495.00
2023-03-17T23:48:15.096Z,494.00
2023-03-17T23:52:15.214Z,498.00
2023-03-17T23:56:15.132Z,501.00
